Andreas, PA (18211)

10:12 PM EDT on August 30, 2016 (GMT -0400)
Mogo | | Change Station

Elev 1500 ft 40.82 °N, 75.87 °W | Updated 11 seconds ago

Clear
Clear
65.0 °F
Feels Like 65.0 °F
N
0.0
Wind Variable Wind from North
Gusts 0.0 mph

Today
High -- | Low -- °F
--% Chance of Precip.
Yesterday
High -- | Low -- °F
Precip. -- in
Pressure 30.05 in
Visibility 10.0 miles
Clouds Clear
Dew Point 60 °F
Humidity 83%
Rainfall 0.00 in
Snow Depth Not available.
6:28 AM 7:37 PM
Waning Crescent, 2% visible
METAR KABE 310151Z 00000KT 10SM CLR 22/16 A3006 RMK AO2 SLP176 T02220156
Pressure 30.05 in
Visibility 10.0 miles
Clouds Clear
Dew Point 60 °F
Humidity 83%
Rainfall 0.00 in
Snow Depth Not available.
6:28 AM 7:37 PM
Waning Crescent, 2% visible
METAR KABE 310151Z 00000KT 10SM CLR 22/16 A3006 RMK AO2 SLP176 T02220156

10-Day Weather Forecast

Almanac

Astronomy

Aug. 30, 2016 Rise Set
Actual Time
Civil Twilight
Nautical Twilight
Astronomical Twilight
Moon
Length of Visible Light
Length of Day
Tomorrow will be .
, % of the Moon is Illuminated

Today's Extremes

State Highs State Lows

Community

WunderPhotos

Upload Photos

1,935,993 photos uploaded!

WunderBlog® & News

Nearby

Air Quality

  Air Quality AQ Index Pollutant
Not available.

Snow Depth

Station Depth Elevation

Earthquake Activity

City Distance Mag. Time & Date
Minimum magnitude displayed is 2.5.

Coastal Water Temperatures

Place Temperature

Stations

Nearby Weather Stations

Station Location Temp. Windchill Dew Point Humidity Wind Precip. Elev Updated Type
                   

Watches & Warnings

There are currently no watches in effect.